Devils Lake, ND

12:42 AM CST on February 22, 2017 (GMT -0600)
Lake Region RadioWorks | | Change Station

Elev 1431 ft 48.11 °N, 98.87 °W | Updated 1 minute ago

Light Rain
Light Rain
34.3 °F
Feels Like 30 °F
N
5.0
Wind Variable Wind from NW
Gusts 5.0 mph

Today
High -- | Low -- °F
--% Chance of Precip.
Yesterday
High -- | Low -- °F
Precip. -- in
Pressure 29.75 in
Visibility 10.0 miles
Clouds Mostly Cloudy 4800 ft
Overcast 7000 ft
Windchill 30 °F
Dew Point 32 °F
Humidity 93%
Rainfall 0.00 in
Snow Depth Not available.
7:29 AM 6:09 PM
Waning Crescent, 19% visible
METAR KDVL 220556Z AUTO 28006KT 10SM -RA BKN048 OVC070 01/01 A2967 RMK AO2 RAB47 SLP075 P0000 60000 T00110006 10028 20006 53001 FZRANO
Pressure 29.75 in
Visibility 10.0 miles
Clouds Mostly Cloudy 4800 ft
Overcast 7000 ft
Windchill 30 °F
Dew Point 32 °F
Humidity 93%
Rainfall 0.00 in
Snow Depth Not available.
7:29 AM 6:09 PM
Waning Crescent, 19% visible
METAR KDVL 220556Z AUTO 28006KT 10SM -RA BKN048 OVC070 01/01 A2967 RMK AO2 RAB47 SLP075 P0000 60000 T00110006 10028 20006 53001 FZRANO

Get Your Daily Forecast Email!

Thanks for signing up!

Be on the lookout for a verification email in your inbox.

You'll start receiving the daily forecast at 8 AM.

×

10-Day Weather Forecast

Almanac

Astronomy

Feb. 22, 2017 Rise Set
Actual Time
Civil Twilight
Nautical Twilight
Astronomical Twilight
Moon
Length of Visible Light
Length of Day
Tomorrow will be .
, % of the Moon is Illuminated

Today's Extremes

State Highs State Lows

Community

WunderPhotos

Upload Photos

1,962,540 photos uploaded!

WunderBlog® & News

Nearby

Air Quality

  Air Quality AQ Index Pollutant
Not available.

Snow Depth

Station Depth Elevation

Earthquake Activity

City Distance Mag. Time & Date
Minimum magnitude displayed is 2.5.

Coastal Water Temperatures

Place Temperature

Stations

Nearby Weather Stations

Station Location Temp. Windchill Dew Point Humidity Wind Precip. Elev Updated Type
                   

Watches & Warnings

There are currently no watches in effect.